Chinle, Arizona
Current Conditions -  °F | °C
As of 2:53 PM on Thursday 20 Nov 2014 (Local Time) from KGUP Reporting Station
Clear Clear  
Wind Chill: 56°   Ceiling: Unl
Heat Index: 56°   Visibility: 10mi
Dew Point: 10°   Wind: 15mph
Humidity: 16%   Direction: 240°WSW
Pressure: 30.06"   Gusts: 21mph
Location:  36.15°N, 109.55°W
Report Text: KGUP 202153Z AUTO 24013G18KT 10SM CLR 13/M12 A3006 RMK AO2 SLP142 T01331122
Loading
Personal Weather Stations






























Interactive Weather Map New forecast layout! Learn more

10-Day Weather Forecast

Advertisements
Track Severe Weather on mobile